KSRC

Details ICAO KSRC
Name SEARCY MUNI
Region United States
Timezone America/Chicago (UTC-5.0)
Plans Departing 10
Arriving 6
Stats Elevation 264 ft / 80 m (AMSL)
Location 35.210607° -91.737538°
Runways 1
Magnetic Variation 0.170° W
Sunrise 2018-05-21 11:00:12 UTC / 2018-05-21 06:00:12 Local
Sunset 2018-05-22 01:09:46 UTC / 2018-05-21 20:09:46 Local
Advertisement - Login to hide

Runways

ID Width Length Bearing (true) Bearing (mag) Surface Threshold Offset Overrun Length
01 100 ft / 30 m 6,021 ft / 1,835 m 12.59° 12.76° Asphalt 500 ft / 152 m 0 ft / 0 m
19 100 ft / 30 m 6,021 ft / 1,835 m 192.60° 192.77° Asphalt 0 ft / 0 m 0 ft / 0 m

Approach Navaids

Runway Type Ident Frequency Range Bearing (true) Bearing (mag) Slope Elevation
01 Localiser IDSY 110.10 MHz 18 nm / 33 km 12.58° 12.75° - 250 ft / 76 m (AMSL)
01 Glidescope IDSY 110.10 MHz 10 nm / 19 km 12.59° 12.76° 3.00° 232 ft / 71 m (AMSL)
01 DME IDSY 110.10 MHz 18 nm / 33 km - - - 250 ft / 76 m (AMSL)

Map

Weather


0- 5 10 15 20 25 30 35+ Temperature / ° C

Clouds and Precipitation
Forecast for 2018-05-21 12:00 UTC. Updated 34 minutes ago

Ground ~20,000 ft ~40,000 ft Winds

METAR

KSRC 211124Z AUTO 00000KT 10SM FEW005 20/20 A3004 RMK AO2

TAF

Not found

Frequencies

Recorded 128.32 MHz ASOS
Clearance 121.70 MHz LITTLE ROCK CLNC DEL
Unicom 122.70 MHz CTAF/UNICOM
Approach 119.75 MHz LITTLE ROCK APP/DEP
Warning: Do not use this data for real-world aviation or navigation. No guarantee of current accuracy is given.